Time;durP1;ratioP1;P1;durP2;ratioP2;P2;SDS_P1;SDS_P2;PMS_P1;PMS_P2;Temp;Humidity;BMP_temperature;BMP_pressure;BME280_temperature;BME280_humidity;BME280_pressure;Samples;Min_cycle;Max_cycle;Signal;HPM_P1;HPM_P2
2023/01/06 00:00:18;;;;;;;;;;;;;;;;;;5082864;28;20285;-79
2023/01/06 00:02:45;;;;;;;;;;;;;;;;;;5078958;28;19931;-79
2023/01/06 00:05:13;;;;;;;;;;;;;;;;;;5087088;28;20276;-79
2023/01/06 00:07:45;;;;;;;;;;;;;;;;;;5087084;28;19947;-80
2023/01/06 00:10:13;;;;;;;;;;;;;;;;;;5087341;28;19925;-79
2023/01/06 00:12:45;;;;;;;;;;;;;;;;;;5085120;28;19926;-79
2023/01/06 00:15:18;;;;;;;;;;;;;;;;;;5086799;28;19927;-79
2023/01/06 00:17:45;;;;;;;;;;;;;;;;;;5086333;28;19935;-79
2023/01/06 00:20:13;;;;;;;;;;;;;;;;;;5087647;28;19931;-80
2023/01/06 00:22:40;;;;;;;;;;;;;;;;;;5089065;28;19931;-81
2023/01/06 00:25:13;;;;;;;;;;;;;;;;;;5086388;28;19942;-80
2023/01/06 00:27:41;;;;;;;;;;;;;;;;;;5085635;28;20371;-79
2023/01/06 00:30:08;;;;;;;;;;;;;;;;;;5092219;28;19920;-80
2023/01/06 00:32:36;;;;;;;;;;;;;;;;;;5092155;28;19924;-79
2023/01/06 00:35:08;;;;;;;;;;;;;;;;;;5086366;28;19924;-79
2023/01/06 00:37:41;;;;;;;;;;;;;;;;;;5083303;28;19931;-79
2023/01/06 00:40:14;;;;;;;;;;;;;;;;;;5084912;28;19928;-79
2023/01/06 00:42:41;;;;;;;;;;;;;;;;;;5085606;28;20380;-79
2023/01/06 00:45:14;;;;;;;;;;;;;;;;;;5085171;28;19924;-79
2023/01/06 00:47:47;;;;;;;;;;;;;;;;;;5083788;28;19927;-80
2023/01/06 00:50:19;;;;;;;;;;;;;;;;;;5098577;28;19924;-80
2023/01/06 00:52:47;;;;;;;;;;;;;;;;;;5091934;28;19927;-80
2023/01/06 00:55:19;;;;;;;;;;;;;;;;;;5083301;28;19946;-79
2023/01/06 00:57:52;;;;;;;;;;;;;;;;;;5086030;28;20268;-79
2023/01/06 01:00:20;;;;;;;;;;;;;;;;;;5081718;28;19927;-81
2023/01/06 01:02:47;;;;;;;;;;;;;;;;;;5091186;28;19924;-80
2023/01/06 01:05:15;;;;;;;;;;;;;;;;;;5082232;28;20312;-79
2023/01/06 01:07:47;;;;;;;;;;;;;;;;;;5089721;28;20352;-80
2023/01/06 01:10:19;;;;;;;;;;;;;;;;;;5082952;28;19920;-80
2023/01/06 01:12:52;;;;;;;;;;;;;;;;;;5084493;28;19924;-80
2023/01/06 01:15:21;;;;;;;;;;;;;;;;;;5074617;28;19920;-79
2023/01/06 01:17:48;;;;;;;;;;;;;;;;;;5084291;28;19920;-79
2023/01/06 01:20:16;;;;;;;;;;;;;;;;;;5083896;28;20280;-80
2023/01/06 01:22:43;;;;;;;;;;;;;;;;;;5079358;28;19931;-79
2023/01/06 01:25:16;;;;;;;;;;;;;;;;;;5081777;28;19943;-79
2023/01/06 01:27:48;;;;;;;;;;;;;;;;;;5073056;28;20377;-79
2023/01/06 01:30:21;;;;;;;;;;;;;;;;;;5083656;28;19920;-80
2023/01/06 01:32:48;;;;;;;;;;;;;;;;;;5092841;28;19920;-79
2023/01/06 01:35:24;;;;;;;;;;;;;;;;;;5077381;28;19929;-79
2023/01/06 01:37:56;;;;;;;;;;;;;;;;;;5085650;28;20319;-79
2023/01/06 01:40:24;;;;;;;;;;;;;;;;;;5087580;28;19924;-79
2023/01/06 01:42:56;;;;;;;;;;;;;;;;;;5089428;28;20405;-79
2023/01/06 01:45:29;;;;;;;;;;;;;;;;;;5090608;28;19931;-79
2023/01/06 01:48:03;;;;;;;;;;;;;;;;;;5089636;28;19931;-79
2023/01/06 01:50:30;;;;;;;;;;;;;;;;;;5098458;28;19926;-79
2023/01/06 01:53:03;;;;;;;;;;;;;;;;;;5081413;28;19924;-79
2023/01/06 01:55:30;;;;;;;;;;;;;;;;;;5088748;28;20377;-79
2023/01/06 01:57:58;;;;;;;;;;;;;;;;;;5089411;28;19924;-79
2023/01/06 02:00:26;;;;;;;;;;;;;;;;;;5079445;28;20369;-79
2023/01/06 02:02:59;;;;;;;;;;;;;;;;;;5083145;28;19927;-79
2023/01/06 02:05:31;;;;;;;;;;;;;;;;;;5081527;28;19932;-79
2023/01/06 02:08:04;;;;;;;;;;;;;;;;;;5089311;28;19931;-79
2023/01/06 02:10:37;;;;;;;;;;;;;;;;;;5082520;28;19920;-79
2023/01/06 02:13:09;;;;;;;;;;;;;;;;;;5099326;28;19920;-79
2023/01/06 02:15:42;;;;;;;;;;;;;;;;;;5084297;28;19927;-80
2023/01/06 02:18:10;;;;;;;;;;;;;;;;;;5084836;28;19935;-79
2023/01/06 02:20:37;;;;;;;;;;;;;;;;;;5085198;28;19927;-79
2023/01/06 02:23:10;;;;;;;;;;;;;;;;;;5082079;28;19931;-80
2023/01/06 02:25:43;;;;;;;;;;;;;;;;;;5084702;28;19924;-78
2023/01/06 02:28:11;;;;;;;;;;;;;;;;;;5090316;28;19920;-79
2023/01/06 02:30:43;;;;;;;;;;;;;;;;;;5083375;28;19924;-78
2023/01/06 02:33:11;;;;;;;;;;;;;;;;;;5082704;28;19924;-80
2023/01/06 02:35:43;;;;;;;;;;;;;;;;;;5082618;28;19920;-80
2023/01/06 02:38:12;;;;;;;;;;;;;;;;;;5079998;28;19920;-78
2023/01/06 02:40:40;;;;;;;;;;;;;;;;;;5083819;28;19920;-80
2023/01/06 02:43:07;;;;;;;;;;;;;;;;;;5090118;28;19932;-79
2023/01/06 02:45:40;;;;;;;;;;;;;;;;;;5080060;28;19921;-79
2023/01/06 02:48:12;;;;;;;;;;;;;;;;;;5082187;28;19928;-79
2023/01/06 02:50:45;;;;;;;;;;;;;;;;;;5080995;28;19924;-79
2023/01/06 02:53:17;;;;;;;;;;;;;;;;;;5079435;28;19928;-78
2023/01/06 02:55:46;;;;;;;;;;;;;;;;;;5088943;28;19931;-79
2023/01/06 02:58:19;;;;;;;;;;;;;;;;;;5089007;28;19920;-79
2023/01/06 03:00:47;;;;;;;;;;;;;;;;;;5083590;28;19931;-79
2023/01/06 03:03:16;;;;;;;;;;;;;;;;;;5082316;28;20300;-78
2023/01/06 03:05:49;;;;;;;;;;;;;;;;;;5087612;28;19931;-79
2023/01/06 03:08:16;;;;;;;;;;;;;;;;;;5083076;28;19921;-79
2023/01/06 03:10:49;;;;;;;;;;;;;;;;;;5079763;28;20405;-79
2023/01/06 03:13:16;;;;;;;;;;;;;;;;;;5083401;28;20579;-79
2023/01/06 03:15:50;;;;;;;;;;;;;;;;;;5088098;28;19927;-79
2023/01/06 03:18:17;;;;;;;;;;;;;;;;;;5080217;28;19920;-79
2023/01/06 03:20:50;;;;;;;;;;;;;;;;;;5079273;28;19921;-79
2023/01/06 03:23:22;;;;;;;;;;;;;;;;;;5081253;28;20005;-80
2023/01/06 03:25:50;;;;;;;;;;;;;;;;;;5074525;28;19927;-80
2023/01/06 03:28:25;;;;;;;;;;;;;;;;;;5080581;28;19928;-79
2023/01/06 03:30:57;;;;;;;;;;;;;;;;;;5082805;28;19924;-79
2023/01/06 03:33:25;;;;;;;;;;;;;;;;;;5087714;28;19920;-79
2023/01/06 03:35:57;;;;;;;;;;;;;;;;;;5077021;28;19920;-78
2023/01/06 03:38:25;;;;;;;;;;;;;;;;;;5080578;28;19924;-80
2023/01/06 03:40:58;;;;;;;;;;;;;;;;;;5081918;28;19931;-78
2023/01/06 03:43:29;;;;;;;;;;;;;;;;;;5082628;28;19920;-79
2023/01/06 03:46:02;;;;;;;;;;;;;;;;;;5089080;28;19927;-79
2023/01/06 03:48:34;;;;;;;;;;;;;;;;;;5078642;28;19929;-79
2023/01/06 03:51:06;;;;;;;;;;;;;;;;;;5088593;28;19920;-78
2023/01/06 03:53:39;;;;;;;;;;;;;;;;;;5089046;28;20264;-79
2023/01/06 03:56:07;;;;;;;;;;;;;;;;;;5089257;28;19928;-80
2023/01/06 03:58:40;;;;;;;;;;;;;;;;;;5077242;28;19927;-79
2023/01/06 04:01:09;;;;;;;;;;;;;;;;;;5089415;28;20296;-78
2023/01/06 04:03:37;;;;;;;;;;;;;;;;;;5096721;28;19950;-79
2023/01/06 04:06:04;;;;;;;;;;;;;;;;;;5083575;28;19928;-80
2023/01/06 04:08:38;;;;;;;;;;;;;;;;;;5087991;28;19924;-78
2023/01/06 04:11:05;;;;;;;;;;;;;;;;;;5089098;28;20376;-79
2023/01/06 04:13:37;;;;;;;;;;;;;;;;;;5078047;28;19926;-79
2023/01/06 04:16:04;;;;;;;;;;;;;;;;;;5079959;28;19931;-79
2023/01/06 04:18:32;;;;;;;;;;;;;;;;;;5081289;28;20394;-79
2023/01/06 04:20:59;;;;;;;;;;;;;;;;;;5079005;28;19928;-80
2023/01/06 04:23:32;;;;;;;;;;;;;;;;;;5082682;28;19920;-78
2023/01/06 04:26:06;;;;;;;;;;;;;;;;;;5078875;28;19931;-79
2023/01/06 04:28:39;;;;;;;;;;;;;;;;;;5080149;28;19923;-79
2023/01/06 04:31:12;;;;;;;;;;;;;;;;;;5087738;28;19921;-79
2023/01/06 04:33:45;;;;;;;;;;;;;;;;;;5087331;28;19920;-79
2023/01/06 04:36:14;;;;;;;;;;;;;;;;;;5080161;28;19928;-79
2023/01/06 04:38:49;;;;;;;;;;;;;;;;;;5082578;28;19924;-79
2023/01/06 04:41:17;;;;;;;;;;;;;;;;;;5080777;28;19920;-79
2023/01/06 04:43:44;;;;;;;;;;;;;;;;;;5077703;28;19931;-80
2023/01/06 04:46:17;;;;;;;;;;;;;;;;;;5080138;28;19920;-79
2023/01/06 04:48:44;;;;;;;;;;;;;;;;;;5083060;28;19925;-80
2023/01/06 04:51:17;;;;;;;;;;;;;;;;;;5081370;28;19927;-79
2023/01/06 04:53:49;;;;;;;;;;;;;;;;;;5081636;28;19924;-79
2023/01/06 04:56:22;;;;;;;;;;;;;;;;;;5086109;28;19934;-78
2023/01/06 04:58:55;;;;;;;;;;;;;;;;;;5081751;28;19927;-79
2023/01/06 05:01:27;;;;;;;;;;;;;;;;;;5102094;28;19927;-80
2023/01/06 05:04:01;;;;;;;;;;;;;;;;;;5084807;28;19924;-79
2023/01/06 05:06:28;;;;;;;;;;;;;;;;;;5103011;27;19924;-79
2023/01/06 05:09:00;;;;;;;;;;;;;;;;;;5084048;28;20367;-78
2023/01/06 05:11:33;;;;;;;;;;;;;;;;;;5085017;28;19924;-79
2023/01/06 05:14:00;;;;;;;;;;;;;;;;;;5084637;28;20380;-79
2023/01/06 05:16:33;;;;;;;;;;;;;;;;;;5083825;28;19931;-79
2023/01/06 05:19:05;;;;;;;;;;;;;;;;;;5099119;28;19920;-79
2023/01/06 05:21:38;;;;;;;;;;;;;;;;;;5083909;28;19924;-79
2023/01/06 05:24:05;;;;;;;;;;;;;;;;;;5088763;28;19920;-79
2023/01/06 05:26:38;;;;;;;;;;;;;;;;;;5083386;28;19924;-79
2023/01/06 05:29:05;;;;;;;;;;;;;;;;;;5085262;28;19920;-79
2023/01/06 05:31:38;;;;;;;;;;;;;;;;;;5084429;28;19931;-79
2023/01/06 05:34:05;;;;;;;;;;;;;;;;;;5083240;28;19927;-79
2023/01/06 05:36:38;;;;;;;;;;;;;;;;;;5099276;28;19920;-78
2023/01/06 05:39:10;;;;;;;;;;;;;;;;;;5085861;28;19931;-78
2023/01/06 05:41:43;;;;;;;;;;;;;;;;;;5082303;28;19920;-79
2023/01/06 05:44:10;;;;;;;;;;;;;;;;;;5077300;28;19963;-80
2023/01/06 05:46:38;;;;;;;;;;;;;;;;;;5082892;28;19924;-79
2023/01/06 05:49:10;;;;;;;;;;;;;;;;;;5080358;28;19920;-80
2023/01/06 05:51:45;;;;;;;;;;;;;;;;;;5082272;28;19923;-80
2023/01/06 05:54:17;;;;;;;;;;;;;;;;;;5085670;28;19924;-79
2023/01/06 05:56:50;;;;;;;;;;;;;;;;;;5083286;28;19920;-79
2023/01/06 05:59:18;;;;;;;;;;;;;;;;;;5080965;28;20296;-78
2023/01/06 06:01:50;;;;;;;;;;;;;;;;;;5079130;28;19927;-80
2023/01/06 06:04:17;;;;;;;;;;;;;;;;;;5076185;28;19920;-79
2023/01/06 06:06:45;;;;;;;;;;;;;;;;;;5082400;28;19924;-78
2023/01/06 06:09:12;;;;;;;;;;;;;;;;;;5082211;28;20348;-79
2023/01/06 06:11:40;;;;;;;;;;;;;;;;;;5083954;28;20360;-79
2023/01/06 06:14:12;;;;;;;;;;;;;;;;;;5089351;28;20300;-79
2023/01/06 06:16:40;;;;;;;;;;;;;;;;;;5084220;28;19931;-79
2023/01/06 06:19:07;;;;;;;;;;;;;;;;;;5080469;28;19924;-78
2023/01/06 06:21:35;;;;;;;;;;;;;;;;;;5079276;28;20394;-79
2023/01/06 06:24:02;;;;;;;;;;;;;;;;;;5081192;28;19920;-79
2023/01/06 06:26:30;;;;;;;;;;;;;;;;;;5083910;28;19924;-78
2023/01/06 06:28:57;;;;;;;;;;;;;;;;;;5087451;28;19928;-78
2023/01/06 06:31:30;;;;;;;;;;;;;;;;;;5082611;28;19920;-79
2023/01/06 06:34:02;;;;;;;;;;;;;;;;;;5083531;28;20313;-78
2023/01/06 06:36:35;;;;;;;;;;;;;;;;;;5083345;28;19924;-79
2023/01/06 06:39:02;;;;;;;;;;;;;;;;;;5085009;28;19920;-79
2023/01/06 06:41:30;;;;;;;;;;;;;;;;;;5088477;28;19931;-78
2023/01/06 06:44:04;;;;;;;;;;;;;;;;;;5082316;28;19928;-78
2023/01/06 06:46:31;;;;;;;;;;;;;;;;;;5086376;28;19956;-79
2023/01/06 06:49:04;;;;;;;;;;;;;;;;;;5084696;28;19924;-78
2023/01/06 06:51:31;;;;;;;;;;;;;;;;;;5087524;28;19920;-79
2023/01/06 06:54:04;;;;;;;;;;;;;;;;;;5083348;28;19924;-79
2023/01/06 06:56:36;;;;;;;;;;;;;;;;;;5081281;28;19924;-80
2023/01/06 06:59:09;;;;;;;;;;;;;;;;;;5081589;28;19935;-80
2023/01/06 07:01:41;;;;;;;;;;;;;;;;;;5080540;28;20293;-79
2023/01/06 07:04:14;;;;;;;;;;;;;;;;;;5099122;28;19924;-79
2023/01/06 07:06:46;;;;;;;;;;;;;;;;;;5079531;28;20365;-79
2023/01/06 07:09:19;;;;;;;;;;;;;;;;;;5081309;28;20403;-79
2023/01/06 07:11:51;;;;;;;;;;;;;;;;;;5081936;28;19935;-78
2023/01/06 07:14:19;;;;;;;;;;;;;;;;;;5094370;28;19927;-79
2023/01/06 07:16:51;;;;;;;;;;;;;;;;;;5078845;28;19991;-79
2023/01/06 07:19:19;;;;;;;;;;;;;;;;;;5077736;28;19928;-79
2023/01/06 07:21:51;;;;;;;;;;;;;;;;;;5081526;28;19924;-79
2023/01/06 07:24:24;;;;;;;;;;;;;;;;;;5082348;28;19924;-79
2023/01/06 07:26:51;;;;;;;;;;;;;;;;;;5088738;28;19931;-79
2023/01/06 07:29:19;;;;;;;;;;;;;;;;;;5085073;28;19925;-79
2023/01/06 07:31:46;;;;;;;;;;;;;;;;;;5081951;28;19931;-80
2023/01/06 07:34:14;;;;;;;;;;;;;;;;;;5087733;28;19924;-79
2023/01/06 07:36:46;;;;;;;;;;;;;;;;;;5081318;28;19932;-79
2023/01/06 07:39:20;;;;;;;;;;;;;;;;;;5079629;28;22336;-79
2023/01/06 07:41:53;;;;;;;;;;;;;;;;;;5085780;28;20387;-79
2023/01/06 07:44:25;;;;;;;;;;;;;;;;;;5081997;28;19931;-79
2023/01/06 07:46:58;;;;;;;;;;;;;;;;;;5095412;27;20304;-79
2023/01/06 07:49:30;;;;;;;;;;;;;;;;;;5080349;28;19936;-78
2023/01/06 07:52:03;;;;;;;;;;;;;;;;;;5074564;28;19928;-79
2023/01/06 07:54:35;;;;;;;;;;;;;;;;;;5087719;28;20311;-81
2023/01/06 07:57:03;;;;;;;;;;;;;;;;;;5079889;28;19928;-79
2023/01/06 07:59:30;;;;;;;;;;;;;;;;;;5080228;28;19924;-79
2023/01/06 08:02:03;;;;;;;;;;;;;;;;;;5081687;28;19947;-79
2023/01/06 08:04:30;;;;;;;;;;;;;;;;;;5086099;28;20304;-79
2023/01/06 08:06:58;;;;;;;;;;;;;;;;;;5077420;28;19939;-81
2023/01/06 08:09:25;;;;;;;;;;;;;;;;;;5085945;28;19931;-79
2023/01/06 08:11:53;;;;;;;;;;;;;;;;;;5088385;28;19935;-80
2023/01/06 08:14:25;;;;;;;;;;;;;;;;;;5083738;28;19925;-78
2023/01/06 08:16:53;;;;;;;;;;;;;;;;;;5088457;28;19928;-79
2023/01/06 08:19:20;;;;;;;;;;;;;;;;;;5081903;28;19924;-79
2023/01/06 08:21:53;;;;;;;;;;;;;;;;;;5099922;28;19936;-80
2023/01/06 08:24:20;;;;;;;;;;;;;;;;;;5084620;28;19939;-78
2023/01/06 08:26:48;;;;;;;;;;;;;;;;;;5080035;28;20285;-80
2023/01/06 08:29:20;;;;;;;;;;;;;;;;;;5084501;28;19924;-78
2023/01/06 08:31:53;;;;;;;;;;;;;;;;;;5085304;28;19928;-80
2023/01/06 08:34:20;;;;;;;;;;;;;;;;;;5082763;28;20404;-79
2023/01/06 08:36:48;;;;;;;;;;;;;;;;;;5080476;28;19929;-81
2023/01/06 08:39:20;;;;;;;;;;;;;;;;;;5089705;28;19936;-78
2023/01/06 08:41:50;;;;;;;;;;;;;;;;;;5082231;28;19936;-80
2023/01/06 08:44:18;;;;;;;;;;;;;;;;;;5082575;28;19948;-79
2023/01/06 08:46:50;;;;;;;;;;;;;;;;;;5086544;28;19951;-81
2023/01/06 08:49:18;;;;;;;;;;;;;;;;;;5079475;28;19928;-79
2023/01/06 08:51:50;;;;;;;;;;;;;;;;;;5097541;28;19933;-79
2023/01/06 08:54:23;;;;;;;;;;;;;;;;;;5086451;28;19931;-79
2023/01/06 08:56:50;;;;;;;;;;;;;;;;;;5096174;28;19928;-79
2023/01/06 08:59:18;;;;;;;;;;;;;;;;;;5079770;28;19939;-79
2023/01/06 09:01:51;;;;;;;;;;;;;;;;;;5085590;28;19928;-80
2023/01/06 09:04:23;;;;;;;;;;;;;;;;;;5081412;28;19932;-79
2023/01/06 09:06:51;;;;;;;;;;;;;;;;;;5078326;28;19932;-79
2023/01/06 09:09:19;;;;;;;;;;;;;;;;;;5073583;28;20387;-81
2023/01/06 09:11:51;;;;;;;;;;;;;;;;;;5061852;28;19943;-80
2023/01/06 09:14:24;;;;;;;;;;;;;;;;;;5063094;28;19935;-79
2023/01/06 09:16:51;;;;;;;;;;;;;;;;;;5064887;28;19932;-80
2023/01/06 09:19:24;;;;;;;;;;;;;;;;;;5056757;28;20558;-82
2023/01/06 09:21:56;;;;;;;;;;;;;;;;;;5058463;28;19932;-80
2023/01/06 09:24:29;;;;;;;;;;;;;;;;;;5060049;28;19932;-79
2023/01/06 09:26:56;;;;;;;;;;;;;;;;;;5064357;28;19942;-80
2023/01/06 09:29:29;;;;;;;;;;;;;;;;;;5067260;28;19932;-78
2023/01/06 09:31:56;;;;;;;;;;;;;;;;;;5064970;28;19943;-77
2023/01/06 09:34:31;;;;;;;;;;;;;;;;;;5057564;28;19971;-79
2023/01/06 09:36:59;;;;;;;;;;;;;;;;;;5059901;28;19932;-79
2023/01/06 09:39:31;;;;;;;;;;;;;;;;;;5056894;28;19932;-81
2023/01/06 09:41:59;;;;;;;;;;;;;;;;;;5061275;28;19939;-82
2023/01/06 09:44:32;;;;;;;;;;;;;;;;;;5059925;28;19928;-82
2023/01/06 09:46:59;;;;;;;;;;;;;;;;;;5068079;28;19932;-79
2023/01/06 09:49:27;;;;;;;;;;;;;;;;;;5064515;28;19932;-82
2023/01/06 09:51:54;;;;;;;;;;;;;;;;;;5056129;28;19932;-82
2023/01/06 09:54:22;;;;;;;;;;;;;;;;;;5061886;28;20820;-81
2023/01/06 09:56:55;;;;;;;;;;;;;;;;;;5066194;28;19943;-81
2023/01/06 09:59:22;;;;;;;;;;;;;;;;;;5065459;28;19932;-84
2023/01/06 10:01:58;;;;;;;;;;;;;;;;;;5059470;28;19932;-81
2023/01/06 10:04:39;;;;;;;;;;;;;;;;;;5058311;28;19928;-81
2023/01/06 10:07:09;;;;;;;;;;;;;;;;;;5056730;28;19928;-82
2023/01/06 10:09:42;;;;;;;;;;;;;;;;;;5065860;28;19947;-81
2023/01/06 10:12:15;;;;;;;;;;;;;;;;;;5064473;28;21807;-81
2023/01/06 10:14:42;;;;;;;;;;;;;;;;;;5065306;28;20631;-81
2023/01/06 10:17:15;;;;;;;;;;;;;;;;;;5070161;28;20285;-81
2023/01/06 10:19:42;;;;;;;;;;;;;;;;;;5061099;28;19951;-81
2023/01/06 10:22:10;;;;;;;;;;;;;;;;;;5049145;28;19932;-81
2023/01/06 10:24:39;;;;;;;;;;;;;;;;;;5052659;28;20482;-82
2023/01/06 10:27:06;;;;;;;;;;;;;;;;;;5064459;28;19932;-81
2023/01/06 10:29:39;;;;;;;;;;;;;;;;;;5060987;28;19932;-80
2023/01/06 10:32:11;;;;;;;;;;;;;;;;;;5057663;28;19932;-81
2023/01/06 10:34:39;;;;;;;;;;;;;;;;;;5065336;28;19932;-80
2023/01/06 10:37:06;;;;;;;;;;;;;;;;;;5062079;28;20489;-81
2023/01/06 10:39:39;;;;;;;;;;;;;;;;;;5058659;28;19932;-81
2023/01/06 10:44:56;;;;;;;;;;;;;;;;;;5061719;28;20557;-80
2023/01/06 10:47:24;;;;;;;;;;;;;;;;;;5063011;28;19932;-81
2023/01/06 10:49:52;;;;;;;;;;;;;;;;;;5059531;28;19932;-81
2023/01/06 10:52:24;;;;;;;;;;;;;;;;;;5056897;28;19932;-80
2023/01/06 10:54:52;;;;;;;;;;;;;;;;;;5063531;28;19939;-81
2023/01/06 10:57:19;;;;;;;;;;;;;;;;;;5061175;28;19931;-82
2023/01/06 10:59:52;;;;;;;;;;;;;;;;;;5065129;28;20751;-80
2023/01/06 11:02:25;;;;;;;;;;;;;;;;;;5054060;28;19931;-80
2023/01/06 11:04:52;;;;;;;;;;;;;;;;;;5072844;28;19924;-79
2023/01/06 11:07:25;;;;;;;;;;;;;;;;;;5052694;28;19932;-80
2023/01/06 11:09:52;;;;;;;;;;;;;;;;;;5049494;28;19932;-80
2023/01/06 11:12:25;;;;;;;;;;;;;;;;;;5052127;28;19932;-79
2023/01/06 11:14:53;;;;;;;;;;;;;;;;;;5056115;28;19939;-80
2023/01/06 11:17:20;;;;;;;;;;;;;;;;;;5056013;28;19947;-80
2023/01/06 11:19:48;;;;;;;;;;;;;;;;;;5051502;28;19933;-80
2023/01/06 11:22:20;;;;;;;;;;;;;;;;;;5056469;28;19990;-80
2023/01/06 11:24:48;;;;;;;;;;;;;;;;;;5063191;28;19932;-80
2023/01/06 11:27:15;;;;;;;;;;;;;;;;;;5060936;28;19932;-80
2023/01/06 11:29:48;;;;;;;;;;;;;;;;;;5059054;28;20369;-80
2023/01/06 11:32:16;;;;;;;;;;;;;;;;;;5055836;28;19935;-80
2023/01/06 11:34:48;;;;;;;;;;;;;;;;;;5061005;28;19932;-81
2023/01/06 11:37:21;;;;;;;;;;;;;;;;;;5056186;28;19943;-80
2023/01/06 11:39:53;;;;;;;;;;;;;;;;;;5055977;28;19939;-80
2023/01/06 11:42:26;;;;;;;;;;;;;;;;;;5054975;28;20603;-81
2023/01/06 11:44:59;;;;;;;;;;;;;;;;;;5059048;28;19932;-82
2023/01/06 11:47:31;;;;;;;;;;;;;;;;;;5059721;28;20320;-81
2023/01/06 11:50:04;;;;;;;;;;;;;;;;;;5059881;28;19928;-80
2023/01/06 11:52:38;;;;;;;;;;;;;;;;;;5060812;28;19928;-81
2023/01/06 11:55:12;;;;;;;;;;;;;;;;;;5058399;28;19939;-80
2023/01/06 11:57:39;;;;;;;;;;;;;;;;;;5060183;28;19939;-81
2023/01/06 12:00:08;;;;;;;;;;;;;;;;;;5061223;28;19936;-80
2023/01/06 12:02:36;;;;;;;;;;;;;;;;;;5059666;28;19932;-80
2023/01/06 12:05:03;;;;;;;;;;;;;;;;;;5061951;28;19940;-81
2023/01/06 12:07:36;;;;;;;;;;;;;;;;;;5060974;28;19932;-80
2023/01/06 12:10:09;;;;;;;;;;;;;;;;;;5066369;28;19939;-80
2023/01/06 12:12:37;;;;;;;;;;;;;;;;;;5070719;28;19932;-82
2023/01/06 12:15:09;;;;;;;;;;;;;;;;;;5062079;28;20923;-81
2023/01/06 12:17:42;;;;;;;;;;;;;;;;;;5068819;28;20750;-81
2023/01/06 12:20:10;;;;;;;;;;;;;;;;;;5064628;28;19932;-81
2023/01/06 12:22:43;;;;;;;;;;;;;;;;;;5066060;28;20376;-80
2023/01/06 12:25:15;;;;;;;;;;;;;;;;;;5064270;28;19932;-80
2023/01/06 12:27:48;;;;;;;;;;;;;;;;;;5063111;28;19932;-80
2023/01/06 12:30:20;;;;;;;;;;;;;;;;;;5062714;28;19932;-80
2023/01/06 12:32:53;;;;;;;;;;;;;;;;;;5066490;28;19939;-80
2023/01/06 12:35:20;;;;;;;;;;;;;;;;;;5066241;28;20379;-81
2023/01/06 12:37:48;;;;;;;;;;;;;;;;;;5063355;28;19939;-80
2023/01/06 12:40:20;;;;;;;;;;;;;;;;;;5058913;28;19932;-81
2023/01/06 12:42:53;;;;;;;;;;;;;;;;;;5057925;28;20499;-80
2023/01/06 12:45:21;;;;;;;;;;;;;;;;;;5065726;28;20598;-80
2023/01/06 12:47:48;;;;;;;;;;;;;;;;;;5063371;28;19939;-81
2023/01/06 12:50:16;;;;;;;;;;;;;;;;;;5059943;28;19939;-80
2023/01/06 12:52:48;;;;;;;;;;;;;;;;;;5064332;28;19928;-80
2023/01/06 12:55:16;;;;;;;;;;;;;;;;;;5059493;28;19932;-80
2023/01/06 12:57:44;;;;;;;;;;;;;;;;;;5061043;28;20411;-81
2023/01/06 13:00:16;;;;;;;;;;;;;;;;;;5062105;28;19935;-80
2023/01/06 13:02:49;;;;;;;;;;;;;;;;;;5065096;28;20289;-81
2023/01/06 13:05:21;;;;;;;;;;;;;;;;;;5059405;28;20546;-80
2023/01/06 13:07:54;;;;;;;;;;;;;;;;;;5060704;28;19947;-80
2023/01/06 13:10:26;;;;;;;;;;;;;;;;;;5069271;28;19939;-81
2023/01/06 13:12:59;;;;;;;;;;;;;;;;;;5050739;28;19932;-81
2023/01/06 13:15:26;;;;;;;;;;;;;;;;;;5054406;28;21209;-80
2023/01/06 13:17:54;;;;;;;;;;;;;;;;;;5042991;28;19940;-82
2023/01/06 13:20:26;;;;;;;;;;;;;;;;;;5055319;28;20265;-81
2023/01/06 13:22:59;;;;;;;;;;;;;;;;;;5065036;28;20445;-81
2023/01/06 13:25:27;;;;;;;;;;;;;;;;;;5067797;28;20070;-80
2023/01/06 13:27:59;;;;;;;;;;;;;;;;;;5061962;28;19936;-81
2023/01/06 13:30:32;;;;;;;;;;;;;;;;;;5073298;28;19931;-81
2023/01/06 13:32:59;;;;;;;;;;;;;;;;;;5070185;28;19931;-81
2023/01/06 13:35:27;;;;;;;;;;;;;;;;;;5064249;28;19939;-80
2023/01/06 13:37:55;;;;;;;;;;;;;;;;;;5061235;28;19932;-82
2023/01/06 13:40:25;;;;;;;;;;;;;;;;;;5070862;28;21630;-80
2023/01/06 13:42:53;;;;;;;;;;;;;;;;;;5058044;28;20627;-80
2023/01/06 13:45:26;;;;;;;;;;;;;;;;;;5061063;28;19932;-80
2023/01/06 13:47:53;;;;;;;;;;;;;;;;;;5063933;28;19932;-79
2023/01/06 13:50:26;;;;;;;;;;;;;;;;;;5058247;28;20665;-80
2023/01/06 13:52:53;;;;;;;;;;;;;;;;;;5056840;28;19932;-81
2023/01/06 13:55:21;;;;;;;;;;;;;;;;;;5058608;28;19932;-80
2023/01/06 13:57:48;;;;;;;;;;;;;;;;;;5055179;28;19932;-80
2023/01/06 14:00:16;;;;;;;;;;;;;;;;;;5062670;28;19932;-80
2023/01/06 14:02:43;;;;;;;;;;;;;;;;;;5057817;28;20471;-80
2023/01/06 14:05:11;;;;;;;;;;;;;;;;;;5056315;28;19932;-80
2023/01/06 14:07:44;;;;;;;;;;;;;;;;;;5051558;28;19932;-81
2023/01/06 14:10:16;;;;;;;;;;;;;;;;;;5048768;28;19939;-80
2023/01/06 14:12:44;;;;;;;;;;;;;;;;;;5062669;28;19932;-81
2023/01/06 14:15:11;;;;;;;;;;;;;;;;;;5048152;28;19932;-80
2023/01/06 14:17:39;;;;;;;;;;;;;;;;;;5058126;28;19936;-81
2023/01/06 14:20:06;;;;;;;;;;;;;;;;;;5062920;28;20339;-81
2023/01/06 14:22:34;;;;;;;;;;;;;;;;;;5054295;28;20338;-80
2023/01/06 14:25:01;;;;;;;;;;;;;;;;;;5058022;28;19947;-81
2023/01/06 14:27:34;;;;;;;;;;;;;;;;;;5051301;28;19932;-80
2023/01/06 14:30:06;;;;;;;;;;;;;;;;;;5056359;28;19950;-80
2023/01/06 14:32:39;;;;;;;;;;;;;;;;;;5053958;28;21819;-80
2023/01/06 14:35:06;;;;;;;;;;;;;;;;;;5053088;28;19932;-80
2023/01/06 14:37:39;;;;;;;;;;;;;;;;;;5053704;28;21130;-80
2023/01/06 14:40:11;;;;;;;;;;;;;;;;;;5053904;28;20349;-80
2023/01/06 14:42:44;;;;;;;;;;;;;;;;;;5051909;28;19947;-80
2023/01/06 14:45:16;;;;;;;;;;;;;;;;;;5070582;28;19932;-80
2023/01/06 14:47:49;;;;;;;;;;;;;;;;;;5057261;28;20734;-80
2023/01/06 14:50:21;;;;;;;;;;;;;;;;;;5055779;28;20524;-80
2023/01/06 14:52:49;;;;;;;;;;;;;;;;;;5059488;28;19932;-80
2023/01/06 14:55:16;;;;;;;;;;;;;;;;;;5057024;28;19943;-80
2023/01/06 14:57:44;;;;;;;;;;;;;;;;;;5052171;28;20944;-80
2023/01/06 15:00:17;;;;;;;;;;;;;;;;;;5059578;28;19931;-79
2023/01/06 15:02:49;;;;;;;;;;;;;;;;;;5056824;28;19932;-81
2023/01/06 15:05:17;;;;;;;;;;;;;;;;;;5058931;28;19928;-80
2023/01/06 15:07:50;;;;;;;;;;;;;;;;;;5055514;28;19932;-80
2023/01/06 15:10:17;;;;;;;;;;;;;;;;;;5054846;28;20946;-80
2023/01/06 15:12:50;;;;;;;;;;;;;;;;;;5059829;28;20351;-80
2023/01/06 15:15:22;;;;;;;;;;;;;;;;;;5056078;28;19932;-81
2023/01/06 15:17:55;;;;;;;;;;;;;;;;;;5058911;28;20320;-80
2023/01/06 15:20:28;;;;;;;;;;;;;;;;;;5058469;28;19939;-80
2023/01/06 15:23:00;;;;;;;;;;;;;;;;;;5052105;28;19932;-81
2023/01/06 15:25:27;;;;;;;;;;;;;;;;;;5054700;28;20160;-80
2023/01/06 15:28:01;;;;;;;;;;;;;;;;;;5051459;28;19932;-80
2023/01/06 15:30:35;;;;;;;;;;;;;;;;;;5057793;28;19932;-80
2023/01/06 15:33:03;;;;;;;;;;;;;;;;;;5051022;28;21900;-80
2023/01/06 15:35:35;;;;;;;;;;;;;;;;;;5053966;28;20391;-80
2023/01/06 15:38:10;;;;;;;;;;;;;;;;;;5051452;28;20382;-80
2023/01/06 15:40:42;;;;;;;;;;;;;;;;;;5054186;28;20316;-80
2023/01/06 15:43:10;;;;;;;;;;;;;;;;;;5060322;28;19931;-80
2023/01/06 15:45:42;;;;;;;;;;;;;;;;;;5054277;28;19931;-81
2023/01/06 15:48:15;;;;;;;;;;;;;;;;;;5050696;28;19932;-80
2023/01/06 15:50:47;;;;;;;;;;;;;;;;;;5055797;28;19932;-80
2023/01/06 15:53:20;;;;;;;;;;;;;;;;;;5049708;28;20803;-82
2023/01/06 15:55:47;;;;;;;;;;;;;;;;;;5054874;28;19947;-80
2023/01/06 15:58:20;;;;;;;;;;;;;;;;;;5055591;28;19943;-80
2023/01/06 16:00:47;;;;;;;;;;;;;;;;;;5055594;28;20878;-80
2023/01/06 16:03:15;;;;;;;;;;;;;;;;;;5052223;28;19936;-81
2023/01/06 16:05:48;;;;;;;;;;;;;;;;;;5060621;28;19932;-80
2023/01/06 16:08:21;;;;;;;;;;;;;;;;;;5060011;28;19932;-80
2023/01/06 16:10:48;;;;;;;;;;;;;;;;;;5056780;28;20296;-80
2023/01/06 16:13:21;;;;;;;;;;;;;;;;;;5061294;28;19939;-80
2023/01/06 16:15:48;;;;;;;;;;;;;;;;;;5058855;28;19932;-80
2023/01/06 16:18:21;;;;;;;;;;;;;;;;;;5060577;28;19935;-80
2023/01/06 16:20:54;;;;;;;;;;;;;;;;;;5056234;28;19948;-81
2023/01/06 16:23:26;;;;;;;;;;;;;;;;;;5056329;28;21957;-80
2023/01/06 16:25:59;;;;;;;;;;;;;;;;;;5063157;28;20699;-80
2023/01/06 16:28:26;;;;;;;;;;;;;;;;;;5055181;28;19931;-81
2023/01/06 16:30:59;;;;;;;;;;;;;;;;;;5057606;28;19939;-80
2023/01/06 16:33:27;;;;;;;;;;;;;;;;;;5052582;28;21707;-80
2023/01/06 16:35:59;;;;;;;;;;;;;;;;;;5057208;28;19939;-80
2023/01/06 16:38:32;;;;;;;;;;;;;;;;;;5053691;28;19932;-80
2023/01/06 16:41:00;;;;;;;;;;;;;;;;;;5055027;28;19943;-81
2023/01/06 16:43:27;;;;;;;;;;;;;;;;;;5049082;28;20896;-80
2023/01/06 16:45:55;;;;;;;;;;;;;;;;;;5055571;28;20474;-80
2023/01/06 16:48:27;;;;;;;;;;;;;;;;;;5052611;28;20803;-81
2023/01/06 16:50:56;;;;;;;;;;;;;;;;;;5059275;28;19932;-81
2023/01/06 16:53:25;;;;;;;;;;;;;;;;;;5051940;28;19939;-81
2023/01/06 16:55:58;;;;;;;;;;;;;;;;;;5063158;28;19932;-81
2023/01/06 16:58:32;;;;;;;;;;;;;;;;;;5061234;28;19933;-81
2023/01/06 17:01:01;;;;;;;;;;;;;;;;;;5057836;28;19932;-80
2023/01/06 17:03:33;;;;;;;;;;;;;;;;;;5059736;28;19932;-80
2023/01/06 17:06:01;;;;;;;;;;;;;;;;;;5055804;28;19932;-80
2023/01/06 17:08:28;;;;;;;;;;;;;;;;;;5056946;28;20830;-81